Flight Track Log - Related Links

Times and Time Zones

All times are in EST time to prevent confusion due to time zone crossing. See the N425EM flight status page for this flight to view local times or setup timezone preferences in your user account.

Time Position Orientation Groundspeed Altitude Reporting Facility
EST Latitude Longitude Course Direction KTS MPH feet Rate Location/Type
Tue 12:55:35 PM 34.0714 -85.9597 42° Northeast 214 246 5,000  Level Atlanta Center
Tue 12:57:35 PM 34.1647 -85.8589 42° Northeast 214 246 6,600 1,067 Climbing Atlanta Center
Tue 12:58:35 PM 34.2094 -85.8022 46° Northeast 209 241 8,200 1,400 Climbing Atlanta Center
Tue 12:59:35 PM 34.2456 -85.7575 46° Northeast 197 227 9,400 1,300 Climbing Atlanta Center
Tue 01:00:35 PM 34.2881 -85.7058 45° Northeast 198 228 10,800 1,450 Climbing Atlanta Center
Tue 01:01:35 PM 34.3242 -85.6611 46° Northeast 198 228 12,300 1,300 Climbing Atlanta Center
Tue 01:02:35 PM 34.3581 -85.6164 47° Northeast 198 228 13,400 1,250 Climbing Atlanta Center
Tue 01:03:35 PM 34.4006 -85.5619 47° Northeast 198 228 14,800 1,350 Climbing Atlanta Center
Tue 01:04:35 PM 34.4431 -85.5097 45° Northeast 198 228 16,100 1,250 Climbing Atlanta Center
Tue 01:05:35 PM 34.4875 -85.4575 44° Northeast 203 234 17,300 1,050 Climbing Atlanta Center
Tue 01:06:35 PM 34.5317 -85.4028 46° Northeast 214 246 18,200 850 Climbing Atlanta Center
Tue 01:07:35 PM 34.5783 -85.3481 44° Northeast 222 255 19,000 400 Climbing Atlanta Center
Tue 01:08:35 PM 34.6292 -85.2808 47° Northeast 240 276 19,000 350 Level Atlanta Center
Tue 01:09:35 PM 34.6797 -85.2233 43° Northeast 246 283 19,700 900 Climbing Atlanta Center
Tue 01:10:35 PM 34.7219 -85.1658 48° Northeast 236 272 20,800 650 Climbing Atlanta Center
Tue 01:11:35 PM 34.7686 -85.1058 47° Northeast 236 272 21,000 100 Climbing Atlanta Center
Tue 01:12:35 PM 34.8233 -85.0408 44° Northeast 248 285 21,000  Level Atlanta Center
Tue 01:13:35 PM 34.8758 -84.9756 46° Northeast 253 291 21,000  Level Atlanta Center
Tue 01:14:35 PM 34.9286 -84.9103 45° Northeast 259 298 21,000  Level Atlanta Center
Tue 01:15:35 PM 34.9811 -84.8425 47° Northeast 264 304 21,000  Level Atlanta Center
Tue 01:16:35 PM 35.0339 -84.7769 45° Northeast 264 304 21,000  Level Atlanta Center
Tue 01:17:35 PM 35.0864 -84.7064 48° Northeast 264 304 21,000  Level Atlanta Center
Tue 01:18:35 PM 35.1389 -84.6433 44° Northeast 264 304 21,000  Level Atlanta Center
Tue 01:19:35 PM 35.1892 -84.5750 48° Northeast 264 304 21,000 -50 Level Atlanta Center
Tue 01:20:35 PM 35.2439 -84.5092 44° Northeast 264 304 20,900  Descending Atlanta Center
Tue 01:21:35 PM 35.2942 -84.4408 48° Northeast 264 304 21,000 50 Climbing Atlanta Center
Tue 01:22:35 PM 35.3486 -84.3747 45° Northeast 264 304 21,000  Level Atlanta Center
Tue 01:23:35 PM 35.4008 -84.3064 47° Northeast 264 304 21,000 -50 Level Atlanta Center
Tue 01:24:35 PM 35.4553 -84.2375 46° Northeast 264 304 20,900 -50 Descending Atlanta Center
Tue 01:25:35 PM 35.5075 -84.1689 47° Northeast 264 304 20,900 50 Level Atlanta Center
Tue 01:26:35 PM 35.5617 -84.1000 46° Northeast 264 304 21,000  Climbing Atlanta Center
Tue 01:27:35 PM 35.6139 -84.0311 47° Northeast 271 312 20,900 -50 Descending Atlanta Center
Tue 01:28:35 PM 35.6661 -83.9647 46° Northeast 266 306 20,900  Level Atlanta Center
Tue 01:29:35 PM 35.7203 -83.8981 45° Northeast 266 306 20,900  Level Atlanta Center
Tue 01:30:35 PM 35.7703 -83.8289 48° Northeast 266 306 20,900  Level Atlanta Center
Tue 01:31:35 PM 35.8222 -83.7622 46° Northeast 266 306 20,900  Level Atlanta Center
Tue 01:32:35 PM 35.8742 -83.6928 47° Northeast 266 306 20,900  Level Atlanta Center
Tue 01:33:35 PM 35.9283 -83.6258 45° Northeast 266 306 20,900  Level Atlanta Center
Tue 01:34:35 PM 35.9803 -83.5564 47° Northeast 266 306 20,900  Level Atlanta Center
Tue 01:35:35 PM 36.0278 -83.4944 47° Northeast 266 306 20,900  Level Atlanta Center
Tue 01:36:35 PM 36.0797 -83.4194 49° Northeast 272 313 20,900  Level Atlanta Center
Tue 01:37:35 PM 36.1336 -83.3550 44° Northeast 267 307 20,900  Level Atlanta Center
Tue 01:38:35 PM 36.1853 -83.2850 48° Northeast 267 307 20,900  Level Atlanta Center
Tue 01:39:35 PM 36.2350 -83.2175 48° Northeast 262 302 20,900  Level Atlanta Center
Tue 01:40:35 PM 36.2844 -83.1500 48° Northeast 262 302 20,900  Level Atlanta Center
Tue 01:41:35 PM 36.3383 -83.0825 45° Northeast 262 302 20,900  Level Atlanta Center
Tue 01:42:35 PM 36.3878 -83.0122 49° Northeast 267 307 20,900  Level Atlanta Center
Tue 01:43:18 PM 36.4236 -82.9681 45° Northeast 271 312 20,900  Level Indianapolis Center
Tue 01:44:20 PM 36.4833 -82.8878 47° Northeast 271 312 20,900  Level Indianapolis Center
Tue 01:45:21 PM 36.5353 -82.8186 47° Northeast 271 312 20,900  Level Indianapolis Center
Tue 01:46:23 PM 36.5864 -82.7503 47° Northeast 271 312 20,900  Level Indianapolis Center
Tue 01:47:25 PM 36.6358 -82.6794 49° Northeast 271 312 20,900  Level Indianapolis Center
Tue 01:48:27 PM 36.6878 -82.6139 45° Northeast 271 312 20,900  Level Indianapolis Center
Tue 01:49:29 PM 36.7464 -82.5333 48° Northeast 271 312 20,900  Level Indianapolis Center
Tue 01:50:31 PM 36.7969 -82.4633 48° Northeast 270 311 20,900  Level Indianapolis Center
Tue 01:51:33 PM 36.8478 -82.3958 47° Northeast 270 311 20,900  Level Indianapolis Center
Tue 01:52:35 PM 36.8975 -82.3281 47° Northeast 269 310 20,900  Level Indianapolis Center
Tue 01:53:36 PM 36.9486 -82.2606 47° Northeast 269 310 20,900  Level Indianapolis Center
Tue 01:54:38 PM 37.0061 -82.1778 49° Northeast 269 310 20,900  Level Indianapolis Center
Tue 01:55:40 PM 37.0592 -82.1106 45° Northeast 269 310 20,900  Level Indianapolis Center
Tue 01:56:42 PM 37.1086 -82.0397 49° Northeast 269 310 20,900  Level Indianapolis Center
Tue 01:57:43 PM 37.1603 -81.9719 46° Northeast 269 310 20,900  Level Indianapolis Center
Tue 01:58:45 PM 37.2100 -81.9000 49° Northeast 270 311 20,900  Level Indianapolis Center
Tue 01:59:47 PM 37.2625 -81.8311 46° Northeast 270 311 20,900  Level Indianapolis Center
Tue 02:00:49 PM 37.3192 -81.7464 50° Northeast 270 311 20,900  Level Indianapolis Center
Tue 02:01:51 PM 37.3692 -81.6764 48° Northeast 270 311 20,900  Level Indianapolis Center
Tue 02:02:53 PM 37.4208 -81.6064 47° Northeast 271 312 20,900  Level Indianapolis Center
Tue 02:03:55 PM 37.4703 -81.5353 49° Northeast 270 311 20,900  Level Indianapolis Center
Tue 02:04:56 PM 37.5231 -81.4619 48° Northeast 272 313 20,900  Level Indianapolis Center
Tue 02:05:58 PM 37.5753 -81.3908 47° Northeast 279 321 20,900  Level Indianapolis Center
Tue 02:07:00 PM 37.6350 -81.3083 48° Northeast 277 319 20,900  Level Indianapolis Center
Tue 02:08:02 PM 37.6844 -81.2369 49° Northeast 277 319 20,900  Level Indianapolis Center
Tue 02:09:04 PM 37.7333 -81.1681 48° Northeast 275 316 20,900  Level Indianapolis Center
Tue 02:10:06 PM 37.7822 -81.0997 48° Northeast 273 314 20,900  Level Indianapolis Center
Tue 02:11:08 PM 37.8342 -81.0253 49° Northeast 273 314 20,900  Level Indianapolis Center
Tue 02:12:10 PM 37.8958 -80.9389 48° Northeast 274 315 20,900  Level Indianapolis Center
Tue 02:13:12 PM 37.9447 -80.8669 49° Northeast 273 314 20,900  Level Indianapolis Center
Tue 02:14:14 PM 37.9956 -80.7958 48° Northeast 273 314 20,900  Level Indianapolis Center
Tue 02:15:16 PM 38.0478 -80.7236 47° Northeast 274 315 20,900  Level Indianapolis Center
Tue 02:16:18 PM 38.0969 -80.6506 49° Northeast 274 315 20,900  Level Indianapolis Center
Tue 02:17:20 PM 38.1472 -80.5794 48° Northeast 274 315 20,900  Level Indianapolis Center
Tue 02:18:22 PM 38.2069 -80.4933 49° Northeast 273 314 20,900  Level Indianapolis Center
Tue 02:19:24 PM 38.2461 -80.4361 49° Northeast 273 314 20,900  Level Indianapolis Center
Tue 02:20:26 PM 38.3047 -80.3511 49° Northeast 271 312 20,900  Level Indianapolis Center
Tue 02:21:28 PM 38.3489 -80.2844 50° Northeast 268 308 20,900  Level Indianapolis Center
Tue 02:22:29 PM 38.4081 -80.2000 48° Northeast 268 308 20,900  Level Indianapolis Center
Tue 02:23:33 PM 38.4564 -80.1364 46° Northeast 268 308 20,900  Level Washington Center
Tue 02:24:34 PM 38.5069 -80.0650 48° Northeast 268 308 20,900  Level Washington Center
Tue 02:25:32 PM 38.5556 -79.9911 50° Northeast 268 308 20,900  Level Washington Center
Tue 02:26:32 PM 38.6061 -79.9169 49° Northeast 268 308 20,900  Level Washington Center
Tue 02:27:33 PM 38.6611 -79.8378 48° Northeast 268 308 20,900  Level Washington Center
Tue 02:28:34 PM 38.7097 -79.7661 49° Northeast 268 308 20,900  Level Washington Center
Tue 02:29:34 PM 38.7578 -79.6969 48° Northeast 268 308 20,900  Level Washington Center
Tue 02:30:34 PM 38.8061 -79.6278 48° Northeast 268 308 20,900  Level Washington Center
Tue 02:31:32 PM 38.8547 -79.5478 52° Northeast 273 314 20,900  Level Washington Center
Tue 02:32:33 PM 38.9008 -79.4728 52° Northeast 273 314 20,900  Level Washington Center
Tue 02:33:34 PM 38.9489 -79.4033 48° Northeast 268 308 20,900  Level Washington Center
Tue 02:34:32 PM 38.9969 -79.3308 50° Northeast 262 302 20,900 -356 Level Washington Center
Tue 02:35:32 PM 39.0431 -79.2611 50° Northeast 262 302 20,200 -843 Descending Washington Center
Tue 02:36:33 PM 39.0908 -79.1914 49° Northeast 257 296 19,200 -1,033 Descending Washington Center
Tue 02:37:34 PM 39.1369 -79.1214 50° Northeast 257 296 18,100 -1,041 Descending Washington Center
Tue 02:38:34 PM 39.1847 -79.0486 50° Northeast 257 296 17,100 -1,068 Descending Washington Center
Tue 02:39:32 PM 39.2306 -78.9758 51° Northeast 257 296 16,000 -1,169 Descending Washington Center
Tue 02:40:32 PM 39.2661 -78.8944 61° Northeast 257 296 14,800 -1,240 Descending Washington Center
Tue 02:41:33 PM 39.2975 -78.8128 64° Northeast 257 296 13,500 -1,082 Descending Washington Center
Tue 02:42:34 PM 39.3311 -78.7308 62° Northeast 252 290 12,600 -908 Descending Washington Center
Tue 02:43:32 PM 39.3603 -78.6464 66° East 252 290 11,700 -807 Descending Washington Center
Tue 02:44:33 PM 39.3958 -78.5564 63° Northeast 262 302 11,000 -836 Descending Washington Center
Tue 02:45:34 PM 39.4269 -78.4772 63° Northeast 257 296 10,000 -1,008 Descending Washington Center
Tue 02:46:32 PM 39.4539 -78.3975 66° East 250 288 9,000 -1,119 Descending Washington Center
Tue 02:47:32 PM 39.4808 -78.3181 66° East 245 282 7,800 -992 Descending Washington Center
Tue 02:48:33 PM 39.5136 -78.2439 60° Northeast 239 275 7,000 -541 Descending Washington Center
Tue 02:49:34 PM 39.5403 -78.1694 65° Northeast 234 269 6,700 -655 Descending Washington Center
Tue 02:50:32 PM 39.5689 -78.0925 64° Northeast 234 269 5,700 -756 Descending Washington Center
Tue 02:51:33 PM 39.5931 -78.0314 63° Northeast 234 269 5,200 -844 Descending Washington Center
Tue 02:53:44 PM 39.6500 -77.8667 66° East 206 237 3,000 -817 Descending Potomac TRACON
Tue 02:54:44 PM 39.6667 -77.8000 72° East 193 222 2,600 -350 Descending Potomac TRACON
Tue 02:55:44 PM 39.6833 -77.7500 67° East 154 177 2,300 -300 Descending Potomac TRACON
Tue 02:56:44 PM 39.6833 -77.7000 90° East 153 176 2,000 -474 Descending Potomac TRACON
Tue 02:57:38 PM 39.7167 -77.6833 21° North 165 190 1,400 -667 Descending Potomac TRACON
Tue 02:59:00 PM 39.7000 -77.7167 237° Southwest  Level FlightAware Approximate
Tue 03:06:00 PM 39.7085 -77.7265 237° Southwest  Level Estimated
Tue 03:07:00 PM 39.7085 -77.7265 237° Southwest  Level Estimated
Tue 03:08:00 PM 39.7085 -77.7265 237° Southwest  Level Estimated
Tue 03:09:00 PM 39.7085 -77.7265 237° Southwest  Level Estimated
Tue 03:10:00 PM 39.7085 -77.7265 237° Southwest  Level Estimated
Tue 03:11:00 PM 39.7085 -77.7265 237° Southwest  Level Estimated
Tue 03:12:00 PM 39.7085 -77.7265 237° Southwest  Level Estimated
Tue 03:13:00 PM 39.7085 -77.7265 237° Southwest  Level Estimated
Tue 03:14:00 PM 39.7085 -77.7265 237° Southwest  Level Estimated

Login

Don't have an account? Register now (free) for customized features, flight alerts, and more!